Frej — SBPT — position and weather

sailwx.info

Track history (hours):
 
Tides and Currents Weather Stations Pressure Air Temp Water Temp Dewpoint Dewpoint Depression Visibility Wind Speed Wind Dir Waves Ship Positions

Frej

Last reported at 2014-Jul-06 11:00 UTC. Time now 2014-Jul-29 10:50 UTC.
Position N 65°36' E 022°12'.
Warning: this ship's position is 22 days out of date.

Length 108 m; draft 7 m.

Type: Other ship. MMSI: 265068000.

Wind at 16 knots

Barometer 1019.3 mb
Air temperature 20.1 ° C

Date/timePositionNaut miles runAvg speedWind from/ knotsBaromVisibWave heightAir tempDewpointWater temp
2014-Jul-06 11:00N 65°36' E 022°12'0 0.0 1019.3 20.1
2014-Jul-06 10:00N 65°36' E 022°12'0 0.0 1019.4 19.9
2014-Jul-06 09:00N 65°36' E 022°12'0 0.0 1019.3 19.7
2014-Jul-06 03:00N 65°36' E 022°12'0 0.0 1017.8 15.0
2014-Jul-06 02:00N 65°36' E 022°12'0 0.0 1017.7 14.0
2014-Jul-05 22:00N 65°36' E 022°12'0 0.0 1016.9 13.7
2014-Jul-05 19:00N 65°36' E 022°12'0 0.0 1016.0 15.8
2014-Jul-05 18:00N 65°36' E 022°12'0 0.0 1015.7 16.9
2014-Jul-05 17:00N 65°36' E 022°12'0 0.0 1015.5 16.7
2014-Jul-05 15:00N 65°36' E 022°12'0 0.0 1015.2 15.3
2014-Jul-05 14:00N 65°36' E 022°12'0 0.0 1015.4 15.6
2014-Jul-05 13:00N 65°36' E 022°12'0 0.0 1015.5 16.4
2014-Jul-05 12:00N 65°36' E 022°12'0 0.0 1015.4 16.0
2014-Jul-05 11:00N 65°36' E 022°12'0 0.0 1015.4 16.5
2014-Jul-05 09:00N 65°36' E 022°12'0 0.0 1015.2 15.5
2014-Jul-05 08:00N 65°36' E 022°12'0 0.0 1014.8 15.0
2014-Jul-05 07:00N 65°36' E 022°12'0 0.0 1014.5 15.1
2014-Jul-05 05:00N 65°36' E 022°12'0 0.0 1014.0 13.4
2014-Jul-05 02:00N 65°36' E 022°12'0 0.0 1013.4 11.4
2014-Jul-04 21:00N 65°36' E 022°12'0 0.0 1012.1 13.1
2014-Jul-04 20:00N 65°36' E 022°12'0 0.0 1011.6 14.0
2014-Jul-04 19:00N 65°36' E 022°12'0 0.0 1010.9 15.4
2014-Jul-04 13:00N 65°36' E 022°12'0 0.0 1008.8 15.8
2014-Jul-04 12:00N 65°36' E 022°12'0 0.0 1008.6 13.8
2014-Jul-04 09:00N 65°36' E 022°12'0 0.0 1007.5 13.4
2014-Jul-04 07:00N 65°36' E 022°12'0 0.0 1006.4 13.4
2014-Jul-04 06:00N 65°36' E 022°12'0 0.0 1006.0 12.8
2014-Jul-04 03:00N 65°36' E 022°12'0 0.0 1004.7 12.9
2014-Jul-04 02:00N 65°36' E 022°12'0 0.0 1004.4 13.0
2014-Jul-04 01:00N 65°36' E 022°12'0 0.0 1004.4 12.8
2014-Jul-03 19:00N 65°36' E 022°12'0 0.0 1003.3 13.4
2014-Jul-03 18:00N 65°36' E 022°12'0 0.0 1003.2 13.5
2014-Jul-03 16:00N 65°36' E 022°12'0 0.0 1002.9 15.6
2014-Jul-03 15:00N 65°36' E 022°12'0 0.0 1002.7 15.4
2014-Jul-03 14:00N 65°36' E 022°12'0 0.0 1002.7 14.5
2014-Jul-03 11:00N 65°36' E 022°12'0 0.0 1002.7 12.9
2014-Jul-03 06:00N 65°36' E 022°12'0 0.0 1001.6 11.0
2014-Jul-03 04:00N 65°36' E 022°12'0 0.0 1001.6 11.2
2014-Jul-03 03:00N 65°36' E 022°12'0 0.0 1001.7 11.9
2014-Jul-03 02:00N 65°36' E 022°12'0 0.0 1001.9 12.1
2014-Jul-02 23:00N 65°36' E 022°12'0 0.0 1002.3 11.4
2014-Jul-02 22:00N 65°36' E 022°12'0 0.0 1002.6 11.2
2014-Jul-02 21:00N 65°36' E 022°12'0 0.0 1002.5 10.9
2014-Jul-02 18:00N 65°36' E 022°12'0 0.0 1003.9 10.6
2014-Jul-02 17:00N 65°36' E 022°12'0 0.0 1004.8 10.9
2014-Jul-02 16:00N 65°36' E 022°12'0 0.0 1006.2 11.0
2014-Jul-02 15:00N 65°36' E 022°12'0 0.0 1008.0 11.5
2014-Jul-02 14:00N 65°36' E 022°12'0 0.0 1009.1 11.7
2014-Jul-02 13:00N 65°36' E 022°12'0 0.0 1009.6 12.5
2014-Jul-02 12:00N 65°36' E 022°12'0 0.0 1009.9 14.6
2014-Jul-02 11:00N 65°36' E 022°12'0 0.0 1009.8 18.0
2014-Jul-02 10:00N 65°36' E 022°12'0 0.0 1010.1 18.9
2014-Jul-02 09:00N 65°36' E 022°12'0 0.0 1010.5 19.7
2014-Jul-02 08:00N 65°36' E 022°12'0 0.0 1011.0 19.3
2014-Jul-02 07:00N 65°36' E 022°12'0 0.0 1011.5 17.6
2014-Jul-02 02:00N 65°36' E 022°12'0 0.0 1012.9 13.0
2014-Jul-01 21:00N 65°36' E 022°12'0 0.0 1014.2 17.7
2014-Jul-01 20:00N 65°36' E 022°12'0 0.0 1014.3 18.9
2014-Jul-01 13:00N 65°36' E 022°12'0 0.0 1014.7 17.5
2014-Jul-01 12:00N 65°36' E 022°12'0 0.0 1014.7 17.4
2014-Jul-01 10:00N 65°36' E 022°12'0 0.0 1014.5 18.1
2014-Jul-01 02:00N 65°36' E 022°12'0 0.0 1012.7 12.7
2014-Jul-01 00:00N 65°36' E 022°12'0 0.0 1012.4 13.3
2014-Jun-30 23:00N 65°36' E 022°12'0 0.0 1012.2 13.6
2014-Jun-30 19:00N 65°36' E 022°12'0 0.0 1011.7 16.6
2014-Jun-30 18:00N 65°36' E 022°12'0 0.0 1011.5 17.0
2014-Jun-30 16:00N 65°36' E 022°12'0 0.0 1011.8 17.6
2014-Jun-30 14:00N 65°36' E 022°12'0 0.0 1011.9 17.5
2014-Jun-30 13:00N 65°36' E 022°12'0 0.0 1012.0 16.4
2014-Jun-30 12:00N 65°36' E 022°12'0 0.0 1012.1 16.9
2014-Jun-30 09:00N 65°36' E 022°12'0 0.0 1012.5 18.9
2014-Jun-30 07:00N 65°36' E 022°12'0 0.0 1012.6 16.2
2014-Jun-30 05:00N 65°36' E 022°12'0 0.0 1012.7 14.6
2014-Jun-30 04:00N 65°36' E 022°12'0 0.0 1012.5 12.5
2014-Jun-29 23:00N 65°36' E 022°12'0 0.0 1012.8 12.5
2014-Jun-29 22:00N 65°36' E 022°12'0 0.0 1012.8 13.5
2014-Jun-29 21:00N 65°36' E 022°12'0 0.0 1012.9 13.8
2014-Jun-29 20:00N 65°36' E 022°12'0 0.0 1013.0 15.8
2014-Jun-29 19:00N 65°36' E 022°12'0 0.0 1013.0 16.2
2014-Jun-29 18:00N 65°36' E 022°12'0 0.0 1013.3 16.8
2014-Jun-29 17:00N 65°36' E 022°12'0 0.0 1013.4 16.8
2014-Jun-29 16:00N 65°36' E 022°12'0 0.0 1013.5 18.4
2014-Jun-29 14:00N 65°36' E 022°12'0 0.0 1014.0 16.4
2014-Jun-29 13:00N 65°36' E 022°12'0 0.0 1014.1 16.0
2014-Jun-29 09:00N 65°36' E 022°12'0 0.0 1015.7 15.1
2014-Jun-29 08:00N 65°36' E 022°12'0 0.0 1015.8 14.5
2014-Jun-29 06:00N 65°36' E 022°12'0 0.0 1015.5 13.2
2014-Jun-29 03:00N 65°36' E 022°12'0 0.0 1016.2 10.3
2014-Jun-29 02:00N 65°36' E 022°12'0 0.0 1016.4 9.1
2014-Jun-29 01:00N 65°36' E 022°12'0 0.0 1016.8 9.0
2014-Jun-28 23:00N 65°36' E 022°12'0 0.0 1017.3 10.1
2014-Jun-28 22:00N 65°36' E 022°12'0 0.0 1017.3 11.3
2014-Jun-28 21:00N 65°36' E 022°12'0 0.0 1017.2 12.3
2014-Jun-28 19:00N 65°36' E 022°12'0 0.0 1017.3 13.1
2014-Jun-28 18:00N 65°36' E 022°12'0 0.0 1017.5 14.4
2014-Jun-28 17:00N 65°36' E 022°12'0 0.0 1017.4 14.2
2014-Jun-28 16:00N 65°36' E 022°12'0 0.0 1017.7 12.9
2014-Jun-28 15:00N 65°36' E 022°12'0 0.0 1018.1 12.8
2014-Jun-28 14:00N 65°36' E 022°12'0 0.0 1018.3 12.7
2014-Jun-28 13:00N 65°36' E 022°12'0 0.0 1018.5 12.5
2014-Jun-28 12:00N 65°36' E 022°12'0 0.0 1019.0 11.7
2014-Jun-28 11:00N 65°36' E 022°12'0 0.0 1019.3 11.6
2014-Jun-28 10:00N 65°36' E 022°12'0 0.0 1019.5 11.2
2014-Jun-28 09:00N 65°36' E 022°12'0 0.0 1019.7 11.2
2014-Jun-28 06:00N 65°36' E 022°12'0 0.0 1019.5 12.0
2014-Jun-28 02:00N 65°36' E 022°12'0 0.0 1020.1 9.4
2014-Jun-27 22:00N 65°36' E 022°12'0 0.0 1020.2 9.6
2014-Jun-27 19:00N 65°36' E 022°12'0 0.0 1020.0 10.5
2014-Jun-27 18:00N 65°36' E 022°12'0 0.0 1020.1 10.8
2014-Jun-27 17:00N 65°36' E 022°12'0 0.0 1020.2 10.7
2014-Jun-27 16:00N 65°36' E 022°12'0 0.0 1020.2 11.0
2014-Jun-27 14:00N 65°36' E 022°12'0 0.0 1020.8 10.8
2014-Jun-27 13:00N 65°36' E 022°12'0 0.0 1020.9 10.4
2014-Jun-27 12:00N 65°36' E 022°12'0 0.0 1021.0 10.5
2014-Jun-27 11:00N 65°36' E 022°12'0 0.0 1021.2 10.6
2014-Jun-27 08:00N 65°36' E 022°12'0 0.0 1021.3 11.5
2014-Jun-27 06:00N 65°36' E 022°12'0 0.0 1021.1 9.9
2014-Jun-27 05:00N 65°36' E 022°12'0 0.0 1021.1 8.5
2014-Jun-27 03:00N 65°36' E 022°12'0 0.0 1020.8 6.7
2014-Jun-27 01:00N 65°36' E 022°12'0 0.0 1020.6 7.3
2014-Jun-27 00:00N 65°36' E 022°12'0 0.0 1020.4 7.6
2014-Jun-26 23:00N 65°36' E 022°12'0 0.0 1020.4 7.9
2014-Jun-26 22:00N 65°36' E 022°12'0 0.0 1020.3 8.4
2014-Jun-26 21:00N 65°36' E 022°12'0 0.0 1020.2 8.9
2014-Jun-26 19:00N 65°36' E 022°12'0 0.0 1019.5 9.3
2014-Jun-26 18:00N 65°36' E 022°12'0 0.0 1019.5 10.3
2014-Jun-26 17:00N 65°36' E 022°12'0 0.0 1019.1 9.9
2014-Jun-26 16:00N 65°36' E 022°12'0 0.0 1019.0 11.6
2014-Jun-26 15:00N 65°36' E 022°12'0 0.0 1019.3 11.6
2014-Jun-26 14:00N 65°36' E 022°12'0 0.0 1019.3 11.4
2014-Jun-26 12:00N 65°36' E 022°12'0 0.0 1019.5 11.0
2014-Jun-26 11:00N 65°36' E 022°12'   1019.5 11.0
Track history (hours):
 
Tides and Currents Weather Stations Pressure Air Temp Water Temp Dewpoint Dewpoint Depression Visibility Wind Speed Wind Dir Waves Ship Positions

Frej

Last reported at 2014-Jul-06 11:00 UTC. Time now 2014-Jul-29 10:50 UTC.
Position N 65°36' E 022°12'.
Warning: this ship's position is 22 days out of date.

Length 108 m; draft 7 m.

Type: Other ship. MMSI: 265068000.

Wind at 16 knots

Barometer 1019.3 mb
Air temperature 20.1 ° C

Date/timePositionNaut miles runAvg speedWind from/ knotsBaromVisibWave heightAir tempDewpointWater temp
2014-Jul-06 11:00N 65°36' E 022°12'0 0.0 1019.3 20.1
2014-Jul-06 10:00N 65°36' E 022°12'0 0.0 1019.4 19.9
2014-Jul-06 09:00N 65°36' E 022°12'0 0.0 1019.3 19.7
2014-Jul-06 03:00N 65°36' E 022°12'0 0.0 1017.8 15.0
2014-Jul-06 02:00N 65°36' E 022°12'0 0.0 1017.7 14.0
2014-Jul-05 22:00N 65°36' E 022°12'0 0.0 1016.9 13.7
2014-Jul-05 19:00N 65°36' E 022°12'0 0.0 1016.0 15.8
2014-Jul-05 18:00N 65°36' E 022°12'0 0.0 1015.7 16.9
2014-Jul-05 17:00N 65°36' E 022°12'0 0.0 1015.5 16.7
2014-Jul-05 15:00N 65°36' E 022°12'0 0.0 1015.2 15.3
2014-Jul-05 14:00N 65°36' E 022°12'0 0.0 1015.4 15.6
2014-Jul-05 13:00N 65°36' E 022°12'0 0.0 1015.5 16.4
2014-Jul-05 12:00N 65°36' E 022°12'0 0.0 1015.4 16.0
2014-Jul-05 11:00N 65°36' E 022°12'0 0.0 1015.4 16.5
2014-Jul-05 09:00N 65°36' E 022°12'0 0.0 1015.2 15.5
2014-Jul-05 08:00N 65°36' E 022°12'0 0.0 1014.8 15.0
2014-Jul-05 07:00N 65°36' E 022°12'0 0.0 1014.5 15.1
2014-Jul-05 05:00N 65°36' E 022°12'0 0.0 1014.0 13.4
2014-Jul-05 02:00N 65°36' E 022°12'0 0.0 1013.4 11.4
2014-Jul-04 21:00N 65°36' E 022°12'0 0.0 1012.1 13.1
2014-Jul-04 20:00N 65°36' E 022°12'0 0.0 1011.6 14.0
2014-Jul-04 19:00N 65°36' E 022°12'0 0.0 1010.9 15.4
2014-Jul-04 13:00N 65°36' E 022°12'0 0.0 1008.8 15.8
2014-Jul-04 12:00N 65°36' E 022°12'0 0.0 1008.6 13.8
2014-Jul-04 09:00N 65°36' E 022°12'0 0.0 1007.5 13.4
2014-Jul-04 07:00N 65°36' E 022°12'0 0.0 1006.4 13.4
2014-Jul-04 06:00N 65°36' E 022°12'0 0.0 1006.0 12.8
2014-Jul-04 03:00N 65°36' E 022°12'0 0.0 1004.7 12.9
2014-Jul-04 02:00N 65°36' E 022°12'0 0.0 1004.4 13.0
2014-Jul-04 01:00N 65°36' E 022°12'0 0.0 1004.4 12.8
2014-Jul-03 19:00N 65°36' E 022°12'0 0.0 1003.3 13.4
2014-Jul-03 18:00N 65°36' E 022°12'0 0.0 1003.2 13.5
2014-Jul-03 16:00N 65°36' E 022°12'0 0.0 1002.9 15.6
2014-Jul-03 15:00N 65°36' E 022°12'0 0.0 1002.7 15.4
2014-Jul-03 14:00N 65°36' E 022°12'0 0.0 1002.7 14.5
2014-Jul-03 11:00N 65°36' E 022°12'0 0.0 1002.7 12.9
2014-Jul-03 06:00N 65°36' E 022°12'0 0.0 1001.6 11.0
2014-Jul-03 04:00N 65°36' E 022°12'0 0.0 1001.6 11.2
2014-Jul-03 03:00N 65°36' E 022°12'0 0.0 1001.7 11.9
2014-Jul-03 02:00N 65°36' E 022°12'0 0.0 1001.9 12.1
2014-Jul-02 23:00N 65°36' E 022°12'0 0.0 1002.3 11.4
2014-Jul-02 22:00N 65°36' E 022°12'0 0.0 1002.6 11.2
2014-Jul-02 21:00N 65°36' E 022°12'0 0.0 1002.5 10.9
2014-Jul-02 18:00N 65°36' E 022°12'0 0.0 1003.9 10.6
2014-Jul-02 17:00N 65°36' E 022°12'0 0.0 1004.8 10.9
2014-Jul-02 16:00N 65°36' E 022°12'0 0.0 1006.2 11.0
2014-Jul-02 15:00N 65°36' E 022°12'0 0.0 1008.0 11.5
2014-Jul-02 14:00N 65°36' E 022°12'0 0.0 1009.1 11.7
2014-Jul-02 13:00N 65°36' E 022°12'0 0.0 1009.6 12.5
2014-Jul-02 12:00N 65°36' E 022°12'0 0.0 1009.9 14.6
2014-Jul-02 11:00N 65°36' E 022°12'0 0.0 1009.8 18.0
2014-Jul-02 10:00N 65°36' E 022°12'0 0.0 1010.1 18.9
2014-Jul-02 09:00N 65°36' E 022°12'0 0.0 1010.5 19.7
2014-Jul-02 08:00N 65°36' E 022°12'0 0.0 1011.0 19.3
2014-Jul-02 07:00N 65°36' E 022°12'0 0.0 1011.5 17.6
2014-Jul-02 02:00N 65°36' E 022°12'0 0.0 1012.9 13.0
2014-Jul-01 21:00N 65°36' E 022°12'0 0.0 1014.2 17.7
2014-Jul-01 20:00N 65°36' E 022°12'0 0.0 1014.3 18.9
2014-Jul-01 13:00N 65°36' E 022°12'0 0.0 1014.7 17.5
2014-Jul-01 12:00N 65°36' E 022°12'0 0.0 1014.7 17.4
2014-Jul-01 10:00N 65°36' E 022°12'0 0.0 1014.5 18.1
2014-Jul-01 02:00N 65°36' E 022°12'0 0.0 1012.7 12.7
2014-Jul-01 00:00N 65°36' E 022°12'0 0.0 1012.4 13.3
2014-Jun-30 23:00N 65°36' E 022°12'0 0.0 1012.2 13.6
2014-Jun-30 19:00N 65°36' E 022°12'0 0.0 1011.7 16.6
2014-Jun-30 18:00N 65°36' E 022°12'0 0.0 1011.5 17.0
2014-Jun-30 16:00N 65°36' E 022°12'0 0.0 1011.8 17.6
2014-Jun-30 14:00N 65°36' E 022°12'0 0.0 1011.9 17.5
2014-Jun-30 13:00N 65°36' E 022°12'0 0.0 1012.0 16.4
2014-Jun-30 12:00N 65°36' E 022°12'0 0.0 1012.1 16.9
2014-Jun-30 09:00N 65°36' E 022°12'0 0.0 1012.5 18.9
2014-Jun-30 07:00N 65°36' E 022°12'0 0.0 1012.6 16.2
2014-Jun-30 05:00N 65°36' E 022°12'0 0.0 1012.7 14.6
2014-Jun-30 04:00N 65°36' E 022°12'0 0.0 1012.5 12.5
2014-Jun-29 23:00N 65°36' E 022°12'0 0.0 1012.8 12.5
2014-Jun-29 22:00N 65°36' E 022°12'0 0.0 1012.8 13.5
2014-Jun-29 21:00N 65°36' E 022°12'0 0.0 1012.9 13.8
2014-Jun-29 20:00N 65°36' E 022°12'0 0.0 1013.0 15.8
2014-Jun-29 19:00N 65°36' E 022°12'0 0.0 1013.0 16.2
2014-Jun-29 18:00N 65°36' E 022°12'0 0.0 1013.3 16.8
2014-Jun-29 17:00N 65°36' E 022°12'0 0.0 1013.4 16.8
2014-Jun-29 16:00N 65°36' E 022°12'0 0.0 1013.5 18.4
2014-Jun-29 14:00N 65°36' E 022°12'0 0.0 1014.0 16.4
2014-Jun-29 13:00N 65°36' E 022°12'0 0.0 1014.1 16.0
2014-Jun-29 09:00N 65°36' E 022°12'0 0.0 1015.7 15.1
2014-Jun-29 08:00N 65°36' E 022°12'0 0.0 1015.8 14.5
2014-Jun-29 06:00N 65°36' E 022°12'0 0.0 1015.5 13.2
2014-Jun-29 03:00N 65°36' E 022°12'0 0.0 1016.2 10.3
2014-Jun-29 02:00N 65°36' E 022°12'0 0.0 1016.4 9.1
2014-Jun-29 01:00N 65°36' E 022°12'0 0.0 1016.8 9.0
2014-Jun-28 23:00N 65°36' E 022°12'0 0.0 1017.3 10.1
2014-Jun-28 22:00N 65°36' E 022°12'0 0.0 1017.3 11.3
2014-Jun-28 21:00N 65°36' E 022°12'0 0.0 1017.2 12.3
2014-Jun-28 19:00N 65°36' E 022°12'0 0.0 1017.3 13.1
2014-Jun-28 18:00N 65°36' E 022°12'0 0.0 1017.5 14.4
2014-Jun-28 17:00N 65°36' E 022°12'0 0.0 1017.4 14.2
2014-Jun-28 16:00N 65°36' E 022°12'0 0.0 1017.7 12.9
2014-Jun-28 15:00N 65°36' E 022°12'0 0.0 1018.1 12.8
2014-Jun-28 14:00N 65°36' E 022°12'0 0.0 1018.3 12.7
2014-Jun-28 13:00N 65°36' E 022°12'0 0.0 1018.5 12.5
2014-Jun-28 12:00N 65°36' E 022°12'0 0.0 1019.0 11.7
2014-Jun-28 11:00N 65°36' E 022°12'0 0.0 1019.3 11.6
2014-Jun-28 10:00N 65°36' E 022°12'0 0.0 1019.5 11.2
2014-Jun-28 09:00N 65°36' E 022°12'0 0.0 1019.7 11.2
2014-Jun-28 06:00N 65°36' E 022°12'0 0.0 1019.5 12.0
2014-Jun-28 02:00N 65°36' E 022°12'0 0.0 1020.1 9.4
2014-Jun-27 22:00N 65°36' E 022°12'0 0.0 1020.2 9.6
2014-Jun-27 19:00N 65°36' E 022°12'0 0.0 1020.0 10.5
2014-Jun-27 18:00N 65°36' E 022°12'0 0.0 1020.1 10.8
2014-Jun-27 17:00N 65°36' E 022°12'0 0.0 1020.2 10.7
2014-Jun-27 16:00N 65°36' E 022°12'0 0.0 1020.2 11.0
2014-Jun-27 14:00N 65°36' E 022°12'0 0.0 1020.8 10.8
2014-Jun-27 13:00N 65°36' E 022°12'0 0.0 1020.9 10.4
2014-Jun-27 12:00N 65°36' E 022°12'0 0.0 1021.0 10.5
2014-Jun-27 11:00N 65°36' E 022°12'0 0.0 1021.2 10.6
2014-Jun-27 08:00N 65°36' E 022°12'0 0.0 1021.3 11.5
2014-Jun-27 06:00N 65°36' E 022°12'0 0.0 1021.1 9.9
2014-Jun-27 05:00N 65°36' E 022°12'0 0.0 1021.1 8.5
2014-Jun-27 03:00N 65°36' E 022°12'0 0.0 1020.8 6.7
2014-Jun-27 01:00N 65°36' E 022°12'0 0.0 1020.6 7.3
2014-Jun-27 00:00N 65°36' E 022°12'0 0.0 1020.4 7.6
2014-Jun-26 23:00N 65°36' E 022°12'0 0.0 1020.4 7.9
2014-Jun-26 22:00N 65°36' E 022°12'0 0.0 1020.3 8.4
2014-Jun-26 21:00N 65°36' E 022°12'0 0.0 1020.2 8.9
2014-Jun-26 19:00N 65°36' E 022°12'0 0.0 1019.5 9.3
2014-Jun-26 18:00N 65°36' E 022°12'0 0.0 1019.5 10.3
2014-Jun-26 17:00N 65°36' E 022°12'0 0.0 1019.1 9.9
2014-Jun-26 16:00N 65°36' E 022°12'0 0.0 1019.0 11.6
2014-Jun-26 15:00N 65°36' E 022°12'0 0.0 1019.3 11.6
2014-Jun-26 14:00N 65°36' E 022°12'0 0.0 1019.3 11.4
2014-Jun-26 12:00N 65°36' E 022°12'0 0.0 1019.5 11.0
2014-Jun-26 11:00N 65°36' E 022°12'   1019.5 11.0

Dump ship's entire track history